sensor_id;sensor_type;location;lat;lon;timestamp;temperature;humidity
21563;DHT22;10942;47.894;11.424;2024-01-11T00:00:31;-5.00;99.90
21563;DHT22;10942;47.894;11.424;2024-01-11T00:05:22;-5.10;99.90
21563;DHT22;10942;47.894;11.424;2024-01-11T00:07:48;-5.20;99.90
21563;DHT22;10942;47.894;11.424;2024-01-11T00:10:17;-5.10;99.90
21563;DHT22;10942;47.894;11.424;2024-01-11T00:12:43;-5.20;99.90
21563;DHT22;10942;47.894;11.424;2024-01-11T00:15:08;-5.20;99.90
21563;DHT22;10942;47.894;11.424;2024-01-11T00:17:34;-5.20;99.90
21563;DHT22;10942;47.894;11.424;2024-01-11T00:41:56;-5.10;99.90
21563;DHT22;10942;47.894;11.424;2024-01-11T00:44:21;-5.10;99.90
21563;DHT22;10942;47.894;11.424;2024-01-11T00:46:47;-5.10;99.90
21563;DHT22;10942;47.894;11.424;2024-01-11T00:49:13;-5.10;99.90
21563;DHT22;10942;47.894;11.424;2024-01-11T00:51:38;-5.10;99.90
21563;DHT22;10942;47.894;11.424;2024-01-11T00:54:04;-5.00;99.90
21563;DHT22;10942;47.894;11.424;2024-01-11T00:56:30;-5.10;99.90
21563;DHT22;10942;47.894;11.424;2024-01-11T00:58:56;-5.10;99.90
21563;DHT22;10942;47.894;11.424;2024-01-11T01:01:21;-5.10;99.90
21563;DHT22;10942;47.894;11.424;2024-01-11T01:03:47;-5.10;99.90
21563;DHT22;10942;47.894;11.424;2024-01-11T01:25:43;-5.50;99.90
21563;DHT22;10942;47.894;11.424;2024-01-11T02:22:00;-5.50;99.90
21563;DHT22;10942;47.894;11.424;2024-01-11T02:24:28;-5.60;99.90
21563;DHT22;10942;47.894;11.424;2024-01-11T02:27:01;-5.80;99.90
21563;DHT22;10942;47.894;11.424;2024-01-11T02:29:28;-5.80;99.90
21563;DHT22;10942;47.894;11.424;2024-01-11T02:31:55;-5.80;99.90
21563;DHT22;10942;47.894;11.424;2024-01-11T02:34:21;-5.80;99.90
21563;DHT22;10942;47.894;11.424;2024-01-11T02:36:47;-5.90;99.90
21563;DHT22;10942;47.894;11.424;2024-01-11T02:39:16;-5.80;99.90
21563;DHT22;10942;47.894;11.424;2024-01-11T02:41:43;-5.90;99.90
21563;DHT22;10942;47.894;11.424;2024-01-11T02:46:35;-5.90;99.90
21563;DHT22;10942;47.894;11.424;2024-01-11T02:49:01;-6.00;99.90
21563;DHT22;10942;47.894;11.424;2024-01-11T02:51:26;-6.00;99.90
21563;DHT22;10942;47.894;11.424;2024-01-11T02:53:52;-6.00;99.90
21563;DHT22;10942;47.894;11.424;2024-01-11T02:56:18;-6.10;99.90
21563;DHT22;10942;47.894;11.424;2024-01-11T03:01:09;-6.20;99.90
21563;DHT22;10942;47.894;11.424;2024-01-11T03:03:35;-6.20;99.90
21563;DHT22;10942;47.894;11.424;2024-01-11T03:06:01;-6.20;99.90
21563;DHT22;10942;47.894;11.424;2024-01-11T03:08:27;-6.20;99.90
21563;DHT22;10942;47.894;11.424;2024-01-11T03:10:53;-6.20;99.90
21563;DHT22;10942;47.894;11.424;2024-01-11T03:13:18;-6.30;99.90
21563;DHT22;10942;47.894;11.424;2024-01-11T03:15:44;-6.30;99.90
21563;DHT22;10942;47.894;11.424;2024-01-11T03:18:09;-6.30;99.90
21563;DHT22;10942;47.894;11.424;2024-01-11T03:20:35;-6.30;99.90
21563;DHT22;10942;47.894;11.424;2024-01-11T03:23:01;-6.50;99.90
21563;DHT22;10942;47.894;11.424;2024-01-11T03:25:27;-6.50;99.90
21563;DHT22;10942;47.894;11.424;2024-01-11T03:27:54;-6.50;99.90
21563;DHT22;10942;47.894;11.424;2024-01-11T03:30:20;-6.40;99.90
21563;DHT22;10942;47.894;11.424;2024-01-11T03:32:45;-6.50;99.90
21563;DHT22;10942;47.894;11.424;2024-01-11T03:35:11;-6.50;99.90
21563;DHT22;10942;47.894;11.424;2024-01-11T03:37:37;-6.40;99.90
21563;DHT22;10942;47.894;11.424;2024-01-11T03:40:03;-6.50;99.90
21563;DHT22;10942;47.894;11.424;2024-01-11T03:42:29;-6.40;99.90
21563;DHT22;10942;47.894;11.424;2024-01-11T03:44:55;-6.40;99.90
21563;DHT22;10942;47.894;11.424;2024-01-11T03:47:21;-6.50;99.90
21563;DHT22;10942;47.894;11.424;2024-01-11T03:49:46;-6.60;99.90
21563;DHT22;10942;47.894;11.424;2024-01-11T03:52:12;-6.60;99.90
21563;DHT22;10942;47.894;11.424;2024-01-11T03:54:38;-6.80;99.90
21563;DHT22;10942;47.894;11.424;2024-01-11T03:57:04;-6.80;99.90
21563;DHT22;10942;47.894;11.424;2024-01-11T03:59:30;-6.70;99.90
21563;DHT22;10942;47.894;11.424;2024-01-11T04:01:56;-6.60;99.90
21563;DHT22;10942;47.894;11.424;2024-01-11T04:04:22;-6.60;99.90
21563;DHT22;10942;47.894;11.424;2024-01-11T04:06:48;-6.60;99.90
21563;DHT22;10942;47.894;11.424;2024-01-11T04:09:15;-6.60;99.90
21563;DHT22;10942;47.894;11.424;2024-01-11T04:11:41;-6.60;99.90
21563;DHT22;10942;47.894;11.424;2024-01-11T04:14:06;-6.60;99.90
21563;DHT22;10942;47.894;11.424;2024-01-11T04:16:32;-6.60;99.90
21563;DHT22;10942;47.894;11.424;2024-01-11T04:18:57;-6.60;99.90
21563;DHT22;10942;47.894;11.424;2024-01-11T04:21:27;-6.50;99.90
21563;DHT22;10942;47.894;11.424;2024-01-11T04:23:55;-6.60;99.90
21563;DHT22;10942;47.894;11.424;2024-01-11T04:26:21;-6.60;99.90
21563;DHT22;10942;47.894;11.424;2024-01-11T04:28:48;-6.60;99.90
21563;DHT22;10942;47.894;11.424;2024-01-11T04:31:15;-6.60;99.90
21563;DHT22;10942;47.894;11.424;2024-01-11T04:33:43;-6.60;99.90
21563;DHT22;10942;47.894;11.424;2024-01-11T04:36:09;-6.70;99.90
21563;DHT22;10942;47.894;11.424;2024-01-11T04:38:35;-6.70;99.90
21563;DHT22;10942;47.894;11.424;2024-01-11T04:41:01;-6.70;99.90
21563;DHT22;10942;47.894;11.424;2024-01-11T04:43:27;-6.80;99.90
21563;DHT22;10942;47.894;11.424;2024-01-11T04:45:52;-6.80;99.90
21563;DHT22;10942;47.894;11.424;2024-01-11T04:48:18;-6.80;99.90
21563;DHT22;10942;47.894;11.424;2024-01-11T04:50:44;-6.80;99.90
21563;DHT22;10942;47.894;11.424;2024-01-11T04:53:10;-6.70;99.90
21563;DHT22;10942;47.894;11.424;2024-01-11T04:55:36;-6.70;99.90
21563;DHT22;10942;47.894;11.424;2024-01-11T04:58:02;-6.70;99.90
21563;DHT22;10942;47.894;11.424;2024-01-11T05:00:28;-6.70;99.90
21563;DHT22;10942;47.894;11.424;2024-01-11T05:02:54;-6.70;99.90
21563;DHT22;10942;47.894;11.424;2024-01-11T05:05:20;-6.80;99.90
21563;DHT22;10942;47.894;11.424;2024-01-11T05:07:46;-6.90;99.90
21563;DHT22;10942;47.894;11.424;2024-01-11T05:10:12;-6.80;99.90
21563;DHT22;10942;47.894;11.424;2024-01-11T05:12:37;-6.60;99.90
21563;DHT22;10942;47.894;11.424;2024-01-11T05:15:05;-6.60;99.90
21563;DHT22;10942;47.894;11.424;2024-01-11T05:17:31;-6.60;99.90
21563;DHT22;10942;47.894;11.424;2024-01-11T05:19:57;-6.70;99.90
21563;DHT22;10942;47.894;11.424;2024-01-11T05:22:23;-6.60;99.90
21563;DHT22;10942;47.894;11.424;2024-01-11T05:24:48;-6.60;99.90
21563;DHT22;10942;47.894;11.424;2024-01-11T05:27:14;-6.50;99.90
21563;DHT22;10942;47.894;11.424;2024-01-11T05:29:40;-6.50;99.90
21563;DHT22;10942;47.894;11.424;2024-01-11T05:32:05;-6.50;99.90
21563;DHT22;10942;47.894;11.424;2024-01-11T05:34:31;-6.50;99.90
21563;DHT22;10942;47.894;11.424;2024-01-11T05:36:57;-6.60;99.90
21563;DHT22;10942;47.894;11.424;2024-01-11T05:39:23;-6.50;99.90
21563;DHT22;10942;47.894;11.424;2024-01-11T05:41:48;-6.60;99.90
21563;DHT22;10942;47.894;11.424;2024-01-11T05:44:14;-6.60;99.90
21563;DHT22;10942;47.894;11.424;2024-01-11T05:46:40;-6.60;99.90
21563;DHT22;10942;47.894;11.424;2024-01-11T05:49:06;-6.70;99.90
21563;DHT22;10942;47.894;11.424;2024-01-11T05:51:31;-6.70;99.90
21563;DHT22;10942;47.894;11.424;2024-01-11T05:53:57;-6.70;99.90
21563;DHT22;10942;47.894;11.424;2024-01-11T05:56:23;-6.70;99.90
21563;DHT22;10942;47.894;11.424;2024-01-11T05:58:48;-6.80;99.90
21563;DHT22;10942;47.894;11.424;2024-01-11T06:01:14;-6.80;99.90
21563;DHT22;10942;47.894;11.424;2024-01-11T06:03:40;-6.80;99.90
21563;DHT22;10942;47.894;11.424;2024-01-11T06:06:06;-6.90;99.90
21563;DHT22;10942;47.894;11.424;2024-01-11T06:08:32;-6.90;99.90
21563;DHT22;10942;47.894;11.424;2024-01-11T06:10:58;-7.00;99.90
21563;DHT22;10942;47.894;11.424;2024-01-11T06:13:24;-7.10;99.90
21563;DHT22;10942;47.894;11.424;2024-01-11T06:15:49;-7.00;99.90
21563;DHT22;10942;47.894;11.424;2024-01-11T06:18:16;-7.00;99.90
21563;DHT22;10942;47.894;11.424;2024-01-11T06:20:41;-7.00;99.90
21563;DHT22;10942;47.894;11.424;2024-01-11T06:23:07;-7.00;99.90
21563;DHT22;10942;47.894;11.424;2024-01-11T06:25:33;-6.90;99.90
21563;DHT22;10942;47.894;11.424;2024-01-11T06:27:59;-6.90;99.90
21563;DHT22;10942;47.894;11.424;2024-01-11T06:30:25;-6.80;99.90
21563;DHT22;10942;47.894;11.424;2024-01-11T06:32:51;-6.80;99.90
21563;DHT22;10942;47.894;11.424;2024-01-11T06:35:16;-6.80;99.90
21563;DHT22;10942;47.894;11.424;2024-01-11T06:37:42;-6.70;99.90
21563;DHT22;10942;47.894;11.424;2024-01-11T06:40:08;-6.70;99.90
21563;DHT22;10942;47.894;11.424;2024-01-11T06:42:34;-6.60;99.90
21563;DHT22;10942;47.894;11.424;2024-01-11T06:45:00;-6.70;99.90
21563;DHT22;10942;47.894;11.424;2024-01-11T06:47:26;-6.60;99.90
21563;DHT22;10942;47.894;11.424;2024-01-11T06:49:53;-6.60;99.90
21563;DHT22;10942;47.894;11.424;2024-01-11T06:52:19;-6.60;99.90
21563;DHT22;10942;47.894;11.424;2024-01-11T06:54:45;-6.70;99.90
21563;DHT22;10942;47.894;11.424;2024-01-11T06:57:11;-6.80;99.90
21563;DHT22;10942;47.894;11.424;2024-01-11T06:59:36;-6.90;99.90
21563;DHT22;10942;47.894;11.424;2024-01-11T07:02:03;-6.90;99.90
21563;DHT22;10942;47.894;11.424;2024-01-11T07:04:29;-7.00;99.90
21563;DHT22;10942;47.894;11.424;2024-01-11T07:06:55;-6.90;99.90
21563;DHT22;10942;47.894;11.424;2024-01-11T07:09:20;-6.80;99.90
21563;DHT22;10942;47.894;11.424;2024-01-11T07:11:46;-6.80;99.90
21563;DHT22;10942;47.894;11.424;2024-01-11T07:14:11;-6.80;99.90
21563;DHT22;10942;47.894;11.424;2024-01-11T07:16:37;-6.80;99.90
21563;DHT22;10942;47.894;11.424;2024-01-11T07:19:03;-6.70;99.90
21563;DHT22;10942;47.894;11.424;2024-01-11T07:21:29;-6.70;99.90
21563;DHT22;10942;47.894;11.424;2024-01-11T07:24:04;-6.70;99.90
21563;DHT22;10942;47.894;11.424;2024-01-11T07:26:30;-6.60;99.90
21563;DHT22;10942;47.894;11.424;2024-01-11T07:28:56;-6.60;99.90
21563;DHT22;10942;47.894;11.424;2024-01-11T07:31:21;-6.50;99.90
21563;DHT22;10942;47.894;11.424;2024-01-11T07:33:47;-6.50;99.90
21563;DHT22;10942;47.894;11.424;2024-01-11T07:36:13;-6.60;99.90
21563;DHT22;10942;47.894;11.424;2024-01-11T07:38:39;-6.60;99.90
21563;DHT22;10942;47.894;11.424;2024-01-11T07:41:05;-6.60;99.90
21563;DHT22;10942;47.894;11.424;2024-01-11T07:43:30;-6.70;99.90
21563;DHT22;10942;47.894;11.424;2024-01-11T07:46:01;-6.60;99.90
21563;DHT22;10942;47.894;11.424;2024-01-11T07:48:27;-6.60;99.90
21563;DHT22;10942;47.894;11.424;2024-01-11T07:50:53;-6.60;99.90
21563;DHT22;10942;47.894;11.424;2024-01-11T07:53:18;-6.60;99.90
21563;DHT22;10942;47.894;11.424;2024-01-11T07:55:44;-6.60;99.90
21563;DHT22;10942;47.894;11.424;2024-01-11T07:58:13;-6.80;99.90
21563;DHT22;10942;47.894;11.424;2024-01-11T08:00:40;-6.60;99.90
21563;DHT22;10942;47.894;11.424;2024-01-11T08:03:06;-6.70;99.90
21563;DHT22;10942;47.894;11.424;2024-01-11T08:05:31;-6.70;99.90
21563;DHT22;10942;47.894;11.424;2024-01-11T08:07:57;-6.80;99.90
21563;DHT22;10942;47.894;11.424;2024-01-11T08:10:27;-6.90;99.90
21563;DHT22;10942;47.894;11.424;2024-01-11T08:12:53;-6.80;99.90
21563;DHT22;10942;47.894;11.424;2024-01-11T08:15:18;-7.00;99.90
21563;DHT22;10942;47.894;11.424;2024-01-11T08:17:44;-6.90;99.90
21563;DHT22;10942;47.894;11.424;2024-01-11T08:20:11;-6.80;99.90
21563;DHT22;10942;47.894;11.424;2024-01-11T08:22:39;-6.70;99.90
21563;DHT22;10942;47.894;11.424;2024-01-11T08:25:05;-6.70;99.90
21563;DHT22;10942;47.894;11.424;2024-01-11T08:27:31;-6.60;99.90
21563;DHT22;10942;47.894;11.424;2024-01-11T08:29:57;-6.60;99.90
21563;DHT22;10942;47.894;11.424;2024-01-11T08:32:23;-6.70;99.90
21563;DHT22;10942;47.894;11.424;2024-01-11T08:34:49;-6.70;99.90
21563;DHT22;10942;47.894;11.424;2024-01-11T08:37:14;-6.70;99.90
21563;DHT22;10942;47.894;11.424;2024-01-11T08:39:40;-6.80;99.90
21563;DHT22;10942;47.894;11.424;2024-01-11T08:42:06;-6.60;99.90
21563;DHT22;10942;47.894;11.424;2024-01-11T08:44:33;-6.70;99.90
21563;DHT22;10942;47.894;11.424;2024-01-11T08:46:58;-6.80;99.90
21563;DHT22;10942;47.894;11.424;2024-01-11T08:49:25;-6.50;99.90
21563;DHT22;10942;47.894;11.424;2024-01-11T08:51:51;-6.40;99.90
21563;DHT22;10942;47.894;11.424;2024-01-11T08:54:17;-6.30;99.90
21563;DHT22;10942;47.894;11.424;2024-01-11T08:56:42;-6.30;99.90
21563;DHT22;10942;47.894;11.424;2024-01-11T08:59:08;-6.40;99.90
21563;DHT22;10942;47.894;11.424;2024-01-11T09:01:37;-6.30;99.90
21563;DHT22;10942;47.894;11.424;2024-01-11T09:04:03;-6.20;99.90
21563;DHT22;10942;47.894;11.424;2024-01-11T09:06:30;-6.10;99.90
21563;DHT22;10942;47.894;11.424;2024-01-11T09:08:55;-6.10;99.90
21563;DHT22;10942;47.894;11.424;2024-01-11T09:11:21;-5.90;99.90
21563;DHT22;10942;47.894;11.424;2024-01-11T09:13:47;-5.90;99.90
21563;DHT22;10942;47.894;11.424;2024-01-11T09:16:16;-5.90;99.90
21563;DHT22;10942;47.894;11.424;2024-01-11T09:18:43;-5.80;99.90
21563;DHT22;10942;47.894;11.424;2024-01-11T09:21:10;-5.80;99.90
21563;DHT22;10942;47.894;11.424;2024-01-11T09:23:36;-5.70;99.90
21563;DHT22;10942;47.894;11.424;2024-01-11T09:26:01;-5.90;99.90
21563;DHT22;10942;47.894;11.424;2024-01-11T09:28:27;-5.80;99.90
21563;DHT22;10942;47.894;11.424;2024-01-11T09:30:53;-5.90;99.90
21563;DHT22;10942;47.894;11.424;2024-01-11T09:33:19;-5.90;99.90
21563;DHT22;10942;47.894;11.424;2024-01-11T09:35:45;-5.70;99.90
21563;DHT22;10942;47.894;11.424;2024-01-11T09:38:10;-5.60;99.90
21563;DHT22;10942;47.894;11.424;2024-01-11T09:40:36;-5.60;99.90
21563;DHT22;10942;47.894;11.424;2024-01-11T09:43:03;-5.50;99.90
21563;DHT22;10942;47.894;11.424;2024-01-11T09:45:30;-5.40;99.90
21563;DHT22;10942;47.894;11.424;2024-01-11T09:47:56;-5.40;99.90
21563;DHT22;10942;47.894;11.424;2024-01-11T09:50:22;-5.40;99.90
21563;DHT22;10942;47.894;11.424;2024-01-11T09:52:49;-5.40;99.90
21563;DHT22;10942;47.894;11.424;2024-01-11T09:55:16;-5.40;99.90
21563;DHT22;10942;47.894;11.424;2024-01-11T09:57:48;-5.40;99.90
21563;DHT22;10942;47.894;11.424;2024-01-11T10:00:22;-5.60;99.90
21563;DHT22;10942;47.894;11.424;2024-01-11T10:02:48;-5.60;99.90
21563;DHT22;10942;47.894;11.424;2024-01-11T10:05:17;-5.50;99.90
21563;DHT22;10942;47.894;11.424;2024-01-11T10:07:43;-5.50;99.90
21563;DHT22;10942;47.894;11.424;2024-01-11T10:10:09;-5.50;99.90
21563;DHT22;10942;47.894;11.424;2024-01-11T10:12:36;-5.40;99.90
21563;DHT22;10942;47.894;11.424;2024-01-11T10:15:05;-5.50;99.90
21563;DHT22;10942;47.894;11.424;2024-01-11T10:17:41;-5.50;99.90
21563;DHT22;10942;47.894;11.424;2024-01-11T10:20:08;-5.40;99.90
21563;DHT22;10942;47.894;11.424;2024-01-11T10:22:36;-5.20;99.90
21563;DHT22;10942;47.894;11.424;2024-01-11T10:25:11;-5.40;99.90
21563;DHT22;10942;47.894;11.424;2024-01-11T10:27:42;-5.30;99.90
21563;DHT22;10942;47.894;11.424;2024-01-11T10:30:13;-5.20;99.90
21563;DHT22;10942;47.894;11.424;2024-01-11T10:32:41;-5.30;99.90
21563;DHT22;10942;47.894;11.424;2024-01-11T10:35:07;-5.30;99.90
21563;DHT22;10942;47.894;11.424;2024-01-11T10:37:32;-5.10;99.90
21563;DHT22;10942;47.894;11.424;2024-01-11T10:40:03;-5.00;99.90
21563;DHT22;10942;47.894;11.424;2024-01-11T10:42:31;-4.90;99.90
21563;DHT22;10942;47.894;11.424;2024-01-11T10:44:59;-5.00;99.90
21563;DHT22;10942;47.894;11.424;2024-01-11T10:47:30;-4.90;99.90
21563;DHT22;10942;47.894;11.424;2024-01-11T10:49:57;-4.70;99.90
21563;DHT22;10942;47.894;11.424;2024-01-11T10:52:36;-4.60;99.90
21563;DHT22;10942;47.894;11.424;2024-01-11T10:55:08;-4.40;99.90
21563;DHT22;10942;47.894;11.424;2024-01-11T10:57:34;-4.30;99.90
21563;DHT22;10942;47.894;11.424;2024-01-11T11:00:01;-4.10;99.90
21563;DHT22;10942;47.894;11.424;2024-01-11T11:02:29;-4.10;99.90
21563;DHT22;10942;47.894;11.424;2024-01-11T11:04:56;-4.10;99.90
21563;DHT22;10942;47.894;11.424;2024-01-11T11:07:23;-4.10;99.90
21563;DHT22;10942;47.894;11.424;2024-01-11T11:09:49;-4.10;99.90
21563;DHT22;10942;47.894;11.424;2024-01-11T11:12:18;-4.00;99.90
21563;DHT22;10942;47.894;11.424;2024-01-11T11:14:46;-3.80;99.90
21563;DHT22;10942;47.894;11.424;2024-01-11T11:17:14;-3.80;99.90
21563;DHT22;10942;47.894;11.424;2024-01-11T11:19:41;-3.90;99.90
21563;DHT22;10942;47.894;11.424;2024-01-11T11:22:07;-4.00;99.90
21563;DHT22;10942;47.894;11.424;2024-01-11T11:24:35;-4.00;99.90
21563;DHT22;10942;47.894;11.424;2024-01-11T11:27:01;-4.00;99.90
21563;DHT22;10942;47.894;11.424;2024-01-11T11:29:27;-4.00;99.90
21563;DHT22;10942;47.894;11.424;2024-01-11T11:31:52;-3.80;99.90
21563;DHT22;10942;47.894;11.424;2024-01-11T11:34:41;-3.90;99.90
21563;DHT22;10942;47.894;11.424;2024-01-11T11:37:10;-3.80;99.90
21563;DHT22;10942;47.894;11.424;2024-01-11T11:39:36;-3.80;99.90
21563;DHT22;10942;47.894;11.424;2024-01-11T11:42:04;-3.70;99.90
21563;DHT22;10942;47.894;11.424;2024-01-11T11:44:29;-3.70;99.90
21563;DHT22;10942;47.894;11.424;2024-01-11T11:47:17;-3.90;99.90
21563;DHT22;10942;47.894;11.424;2024-01-11T11:50:09;-4.00;99.90
21563;DHT22;10942;47.894;11.424;2024-01-11T11:52:37;-3.90;99.90
21563;DHT22;10942;47.894;11.424;2024-01-11T11:55:03;-3.90;99.90
21563;DHT22;10942;47.894;11.424;2024-01-11T11:57:29;-3.90;99.90
21563;DHT22;10942;47.894;11.424;2024-01-11T11:59:56;-3.80;99.90
21563;DHT22;10942;47.894;11.424;2024-01-11T12:02:25;-3.90;99.90
21563;DHT22;10942;47.894;11.424;2024-01-11T12:04:51;-3.90;99.90
21563;DHT22;10942;47.894;11.424;2024-01-11T12:07:16;-3.80;99.90
21563;DHT22;10942;47.894;11.424;2024-01-11T12:09:42;-4.00;99.90
21563;DHT22;10942;47.894;11.424;2024-01-11T12:12:08;-4.00;99.90
21563;DHT22;10942;47.894;11.424;2024-01-11T12:14:37;-3.90;99.90
21563;DHT22;10942;47.894;11.424;2024-01-11T12:17:03;-4.00;99.90
21563;DHT22;10942;47.894;11.424;2024-01-11T12:19:29;-4.00;99.90
21563;DHT22;10942;47.894;11.424;2024-01-11T12:21:54;-4.10;99.90
21563;DHT22;10942;47.894;11.424;2024-01-11T12:24:20;-4.20;99.90
21563;DHT22;10942;47.894;11.424;2024-01-11T12:26:49;-4.20;99.90
21563;DHT22;10942;47.894;11.424;2024-01-11T12:29:17;-4.10;99.90
21563;DHT22;10942;47.894;11.424;2024-01-11T12:31:44;-4.10;99.90
21563;DHT22;10942;47.894;11.424;2024-01-11T12:34:11;-4.30;99.90
21563;DHT22;10942;47.894;11.424;2024-01-11T12:36:38;-4.20;99.90
21563;DHT22;10942;47.894;11.424;2024-01-11T12:39:03;-4.10;99.90
21563;DHT22;10942;47.894;11.424;2024-01-11T12:41:32;-4.40;99.90
21563;DHT22;10942;47.894;11.424;2024-01-11T12:43:58;-4.30;99.90
21563;DHT22;10942;47.894;11.424;2024-01-11T12:46:24;-4.30;99.90
21563;DHT22;10942;47.894;11.424;2024-01-11T12:48:50;-4.30;99.90
21563;DHT22;10942;47.894;11.424;2024-01-11T12:51:17;-4.30;99.90
21563;DHT22;10942;47.894;11.424;2024-01-11T12:53:47;-4.20;99.90
21563;DHT22;10942;47.894;11.424;2024-01-11T12:56:15;-4.30;99.90
21563;DHT22;10942;47.894;11.424;2024-01-11T12:58:41;-4.30;99.90
21563;DHT22;10942;47.894;11.424;2024-01-11T13:01:08;-4.30;99.90
21563;DHT22;10942;47.894;11.424;2024-01-11T13:03:34;-4.20;99.90
21563;DHT22;10942;47.894;11.424;2024-01-11T13:06:02;-4.10;99.90
21563;DHT22;10942;47.894;11.424;2024-01-11T13:08:33;-4.10;99.90
21563;DHT22;10942;47.894;11.424;2024-01-11T13:11:03;-3.90;99.90
21563;DHT22;10942;47.894;11.424;2024-01-11T13:13:35;-3.80;99.90
21563;DHT22;10942;47.894;11.424;2024-01-11T13:16:02;-3.80;99.90
21563;DHT22;10942;47.894;11.424;2024-01-11T13:18:46;-3.90;99.90
21563;DHT22;10942;47.894;11.424;2024-01-11T13:21:12;-3.70;99.90
21563;DHT22;10942;47.894;11.424;2024-01-11T13:23:38;-3.70;99.90
21563;DHT22;10942;47.894;11.424;2024-01-11T13:26:05;-3.50;99.90
21563;DHT22;10942;47.894;11.424;2024-01-11T13:30:58;-3.60;99.90
21563;DHT22;10942;47.894;11.424;2024-01-11T13:33:25;-3.70;99.90
21563;DHT22;10942;47.894;11.424;2024-01-11T13:35:51;-3.70;99.90
21563;DHT22;10942;47.894;11.424;2024-01-11T13:38:17;-3.70;99.90
21563;DHT22;10942;47.894;11.424;2024-01-11T13:40:43;-3.70;99.90
21563;DHT22;10942;47.894;11.424;2024-01-11T13:43:09;-3.50;99.90
21563;DHT22;10942;47.894;11.424;2024-01-11T13:45:35;-3.60;99.90
21563;DHT22;10942;47.894;11.424;2024-01-11T13:48:03;-3.50;99.90
21563;DHT22;10942;47.894;11.424;2024-01-11T13:50:29;-3.60;99.90
21563;DHT22;10942;47.894;11.424;2024-01-11T13:52:55;-3.50;99.90
21563;DHT22;10942;47.894;11.424;2024-01-11T13:55:20;-3.60;99.90
21563;DHT22;10942;47.894;11.424;2024-01-11T13:57:50;-3.70;99.90
21563;DHT22;10942;47.894;11.424;2024-01-11T14:00:17;-3.70;99.90
21563;DHT22;10942;47.894;11.424;2024-01-11T14:02:44;-3.70;99.90
21563;DHT22;10942;47.894;11.424;2024-01-11T14:05:11;-3.60;99.90
21563;DHT22;10942;47.894;11.424;2024-01-11T14:07:42;-3.50;99.90
21563;DHT22;10942;47.894;11.424;2024-01-11T14:10:09;-3.50;99.90
21563;DHT22;10942;47.894;11.424;2024-01-11T14:12:36;-3.50;99.90
21563;DHT22;10942;47.894;11.424;2024-01-11T14:15:03;-3.50;99.90
21563;DHT22;10942;47.894;11.424;2024-01-11T14:17:29;-3.50;99.90
21563;DHT22;10942;47.894;11.424;2024-01-11T14:19:55;-3.60;99.90
21563;DHT22;10942;47.894;11.424;2024-01-11T14:22:21;-3.60;99.90
21563;DHT22;10942;47.894;11.424;2024-01-11T14:24:46;-3.60;99.90
21563;DHT22;10942;47.894;11.424;2024-01-11T14:27:12;-3.70;99.90
21563;DHT22;10942;47.894;11.424;2024-01-11T14:29:40;-3.80;99.90
21563;DHT22;10942;47.894;11.424;2024-01-11T14:32:05;-3.80;99.90
21563;DHT22;10942;47.894;11.424;2024-01-11T14:34:31;-3.90;99.90
21563;DHT22;10942;47.894;11.424;2024-01-11T14:36:57;-3.90;99.90
21563;DHT22;10942;47.894;11.424;2024-01-11T14:41:49;-4.00;99.90
21563;DHT22;10942;47.894;11.424;2024-01-11T14:44:15;-4.00;99.90
21563;DHT22;10942;47.894;11.424;2024-01-11T14:46:40;-4.10;99.90
21563;DHT22;10942;47.894;11.424;2024-01-11T14:49:08;-4.10;99.90
21563;DHT22;10942;47.894;11.424;2024-01-11T14:51:33;-4.10;99.90
21563;DHT22;10942;47.894;11.424;2024-01-11T14:54:00;-4.20;99.90
21563;DHT22;10942;47.894;11.424;2024-01-11T14:56:25;-4.30;99.90
21563;DHT22;10942;47.894;11.424;2024-01-11T14:58:51;-4.20;99.90
21563;DHT22;10942;47.894;11.424;2024-01-11T15:01:17;-4.30;99.90
21563;DHT22;10942;47.894;11.424;2024-01-11T15:03:43;-4.30;99.90
21563;DHT22;10942;47.894;11.424;2024-01-11T15:06:09;-4.40;99.90
21563;DHT22;10942;47.894;11.424;2024-01-11T15:08:35;-4.30;99.90
21563;DHT22;10942;47.894;11.424;2024-01-11T15:11:01;-4.30;99.90
21563;DHT22;10942;47.894;11.424;2024-01-11T15:13:26;-4.40;99.90
21563;DHT22;10942;47.894;11.424;2024-01-11T15:15:54;-4.40;99.90
21563;DHT22;10942;47.894;11.424;2024-01-11T15:18:20;-4.40;99.90
21563;DHT22;10942;47.894;11.424;2024-01-11T15:20:45;-4.50;99.90
21563;DHT22;10942;47.894;11.424;2024-01-11T15:23:11;-4.40;99.90
21563;DHT22;10942;47.894;11.424;2024-01-11T15:25:37;-4.40;99.90
21563;DHT22;10942;47.894;11.424;2024-01-11T15:28:02;-4.40;99.90
21563;DHT22;10942;47.894;11.424;2024-01-11T15:30:28;-4.50;99.90
21563;DHT22;10942;47.894;11.424;2024-01-11T15:32:54;-4.60;99.90
21563;DHT22;10942;47.894;11.424;2024-01-11T15:35:19;-4.60;99.90
21563;DHT22;10942;47.894;11.424;2024-01-11T15:37:45;-4.60;99.90
21563;DHT22;10942;47.894;11.424;2024-01-11T15:40:11;-4.60;99.90
21563;DHT22;10942;47.894;11.424;2024-01-11T15:42:37;-4.60;99.90
21563;DHT22;10942;47.894;11.424;2024-01-11T15:45:05;-4.70;99.90
21563;DHT22;10942;47.894;11.424;2024-01-11T15:47:32;-4.60;99.90
21563;DHT22;10942;47.894;11.424;2024-01-11T15:49:57;-4.60;99.90
21563;DHT22;10942;47.894;11.424;2024-01-11T15:52:26;-4.70;99.90
21563;DHT22;10942;47.894;11.424;2024-01-11T15:54:51;-4.70;99.90
21563;DHT22;10942;47.894;11.424;2024-01-11T15:57:17;-4.80;99.90
21563;DHT22;10942;47.894;11.424;2024-01-11T15:59:43;-4.70;99.90
21563;DHT22;10942;47.894;11.424;2024-01-11T16:02:08;-4.70;99.90
21563;DHT22;10942;47.894;11.424;2024-01-11T16:04:35;-4.70;99.90
21563;DHT22;10942;47.894;11.424;2024-01-11T16:07:01;-4.60;99.90
21563;DHT22;10942;47.894;11.424;2024-01-11T16:09:27;-4.60;99.90
21563;DHT22;10942;47.894;11.424;2024-01-11T16:11:55;-4.60;99.90
21563;DHT22;10942;47.894;11.424;2024-01-11T16:14:21;-4.60;99.90
21563;DHT22;10942;47.894;11.424;2024-01-11T16:16:47;-4.60;99.90
21563;DHT22;10942;47.894;11.424;2024-01-11T16:19:12;-4.70;99.90
21563;DHT22;10942;47.894;11.424;2024-01-11T16:21:38;-4.70;99.90
21563;DHT22;10942;47.894;11.424;2024-01-11T16:24:04;-4.70;99.90
21563;DHT22;10942;47.894;11.424;2024-01-11T16:26:30;-4.80;99.90
21563;DHT22;10942;47.894;11.424;2024-01-11T16:28:56;-4.80;99.90
21563;DHT22;10942;47.894;11.424;2024-01-11T16:31:22;-4.90;99.90
21563;DHT22;10942;47.894;11.424;2024-01-11T16:33:50;-5.00;99.90
21563;DHT22;10942;47.894;11.424;2024-01-11T16:36:16;-5.00;99.90
21563;DHT22;10942;47.894;11.424;2024-01-11T16:38:45;-5.00;99.90
21563;DHT22;10942;47.894;11.424;2024-01-11T16:41:10;-4.90;99.90
21563;DHT22;10942;47.894;11.424;2024-01-11T16:43:36;-4.90;99.90
21563;DHT22;10942;47.894;11.424;2024-01-11T16:46:02;-4.90;99.90
21563;DHT22;10942;47.894;11.424;2024-01-11T16:48:29;-4.90;99.90
21563;DHT22;10942;47.894;11.424;2024-01-11T16:50:55;-4.90;99.90
21563;DHT22;10942;47.894;11.424;2024-01-11T16:53:22;-4.80;99.90
21563;DHT22;10942;47.894;11.424;2024-01-11T16:55:48;-4.80;99.90
21563;DHT22;10942;47.894;11.424;2024-01-11T16:58:14;-4.80;99.90